sensor_id;sensor_type;location;lat;lon;timestamp;P1;durP1;ratioP1;P2;durP2;ratioP2
7166;SDS011;3625;51.762;14.320;2023-02-19T05:01:38;4.30;;;3.00;;
7166;SDS011;3625;51.762;14.320;2023-02-19T05:04:07;3.10;;;2.87;;
7166;SDS011;3625;51.762;14.320;2023-02-19T05:06:43;2.87;;;2.50;;
7166;SDS011;3625;51.762;14.320;2023-02-19T05:09:12;2.10;;;2.00;;
7166;SDS011;3625;51.762;14.320;2023-02-19T05:11:46;2.50;;;2.30;;
7166;SDS011;3625;51.762;14.320;2023-02-19T05:14:19;2.40;;;2.20;;
7166;SDS011;3625;51.762;14.320;2023-02-19T05:17:00;2.90;;;2.50;;
7166;SDS011;3625;51.762;14.320;2023-02-19T05:19:38;2.20;;;2.00;;
7166;SDS011;3625;51.762;14.320;2023-02-19T05:22:14;2.30;;;2.10;;
7166;SDS011;3625;51.762;14.320;2023-02-19T05:24:44;2.60;;;2.40;;
7166;SDS011;3625;51.762;14.320;2023-02-19T05:27:19;2.73;;;2.40;;
7166;SDS011;3625;51.762;14.320;2023-02-19T05:29:51;2.30;;;2.07;;
7166;SDS011;3625;51.762;14.320;2023-02-19T06:03:39;2.63;;;2.17;;
7166;SDS011;3625;51.762;14.320;2023-02-19T06:06:32;2.30;;;2.20;;
7166;SDS011;3625;51.762;14.320;2023-02-19T06:09:03;2.60;;;2.40;;
7166;SDS011;3625;51.762;14.320;2023-02-19T06:11:35;2.60;;;2.40;;
7166;SDS011;3625;51.762;14.320;2023-02-19T06:14:18;3.30;;;2.90;;
7166;SDS011;3625;51.762;14.320;2023-02-19T06:16:58;2.70;;;2.50;;
7166;SDS011;3625;51.762;14.320;2023-02-19T06:22:39;2.73;;;2.40;;
7166;SDS011;3625;51.762;14.320;2023-02-19T06:25:09;2.70;;;2.50;;
7166;SDS011;3625;51.762;14.320;2023-02-19T06:27:45;2.73;;;2.53;;
7166;SDS011;3625;51.762;14.320;2023-02-19T06:30:15;2.90;;;2.70;;
7166;SDS011;3625;51.762;14.320;2023-02-19T06:32:46;2.60;;;2.40;;
7166;SDS011;3625;51.762;14.320;2023-02-19T06:35:26;2.80;;;2.50;;
7166;SDS011;3625;51.762;14.320;2023-02-19T06:38:09;3.63;;;2.37;;
7166;SDS011;3625;51.762;14.320;2023-02-19T06:40:38;2.57;;;2.37;;
7166;SDS011;3625;51.762;14.320;2023-02-19T06:43:21;4.50;;;2.57;;
7166;SDS011;3625;51.762;14.320;2023-02-19T06:45:56;2.93;;;2.47;;
7166;SDS011;3625;51.762;14.320;2023-02-19T06:48:29;2.30;;;2.20;;
7166;SDS011;3625;51.762;14.320;2023-02-19T06:51:02;2.80;;;2.60;;
7166;SDS011;3625;51.762;14.320;2023-02-19T06:53:34;3.50;;;2.40;;
7166;SDS011;3625;51.762;14.320;2023-02-19T06:56:06;2.80;;;2.60;;
7166;SDS011;3625;51.762;14.320;2023-02-19T06:58:58;3.03;;;2.50;;
7166;SDS011;3625;51.762;14.320;2023-02-19T07:01:30;3.60;;;2.97;;
7166;SDS011;3625;51.762;14.320;2023-02-19T07:04:03;3.50;;;2.53;;
7166;SDS011;3625;51.762;14.320;2023-02-19T07:06:36;2.97;;;2.27;;
7166;SDS011;3625;51.762;14.320;2023-02-19T07:09:12;2.93;;;2.50;;
7166;SDS011;3625;51.762;14.320;2023-02-19T07:11:41;3.23;;;2.83;;
7166;SDS011;3625;51.762;14.320;2023-02-19T07:14:12;2.80;;;2.60;;
7166;SDS011;3625;51.762;14.320;2023-02-19T07:16:50;3.40;;;2.60;;
7166;SDS011;3625;51.762;14.320;2023-02-19T07:19:29;4.30;;;3.90;;
7166;SDS011;3625;51.762;14.320;2023-02-19T07:22:13;2.87;;;2.30;;
7166;SDS011;3625;51.762;14.320;2023-02-19T07:24:44;3.67;;;2.77;;
7166;SDS011;3625;51.762;14.320;2023-02-19T07:27:17;3.37;;;2.60;;
7166;SDS011;3625;51.762;14.320;2023-02-19T07:29:47;3.30;;;2.57;;
7166;SDS011;3625;51.762;14.320;2023-02-19T07:32:21;2.80;;;2.60;;
7166;SDS011;3625;51.762;14.320;2023-02-19T07:34:53;3.20;;;2.63;;
7166;SDS011;3625;51.762;14.320;2023-02-19T07:37:28;3.10;;;2.70;;
7166;SDS011;3625;51.762;14.320;2023-02-19T07:40:02;2.97;;;2.70;;
7166;SDS011;3625;51.762;14.320;2023-02-19T07:42:34;3.97;;;3.30;;
7166;SDS011;3625;51.762;14.320;2023-02-19T07:47:25;7.60;;;3.33;;
7166;SDS011;3625;51.762;14.320;2023-02-19T07:53:41;5.03;;;3.20;;
7166;SDS011;3625;51.762;14.320;2023-02-19T08:00:26;5.87;;;3.47;;
7166;SDS011;3625;51.762;14.320;2023-02-19T08:03:07;3.97;;;3.43;;
7166;SDS011;3625;51.762;14.320;2023-02-19T08:05:38;5.30;;;3.40;;
7166;SDS011;3625;51.762;14.320;2023-02-19T08:08:35;4.43;;;4.03;;
7166;SDS011;3625;51.762;14.320;2023-02-19T08:11:36;4.00;;;3.47;;
7166;SDS011;3625;51.762;14.320;2023-02-19T08:14:23;3.57;;;3.17;;
7166;SDS011;3625;51.762;14.320;2023-02-19T08:17:00;3.10;;;2.80;;
7166;SDS011;3625;51.762;14.320;2023-02-19T08:19:31;2.93;;;2.63;;
7166;SDS011;3625;51.762;14.320;2023-02-19T08:22:09;2.77;;;2.57;;
7166;SDS011;3625;51.762;14.320;2023-02-19T08:24:44;3.00;;;2.80;;
7166;SDS011;3625;51.762;14.320;2023-02-19T08:27:19;4.13;;;2.73;;
7166;SDS011;3625;51.762;14.320;2023-02-19T08:29:59;3.43;;;2.50;;
7166;SDS011;3625;51.762;14.320;2023-02-19T08:32:49;2.87;;;2.30;;
7166;SDS011;3625;51.762;14.320;2023-02-19T08:35:34;5.20;;;2.60;;
7166;SDS011;3625;51.762;14.320;2023-02-19T08:38:13;3.13;;;2.80;;
7166;SDS011;3625;51.762;14.320;2023-02-19T08:40:58;3.60;;;3.00;;
7166;SDS011;3625;51.762;14.320;2023-02-19T08:43:38;3.57;;;2.50;;
7166;SDS011;3625;51.762;14.320;2023-02-19T08:46:10;2.77;;;2.57;;
7166;SDS011;3625;51.762;14.320;2023-02-19T08:48:53;2.83;;;2.60;;
7166;SDS011;3625;51.762;14.320;2023-02-19T08:52:04;4.53;;;2.77;;
7166;SDS011;3625;51.762;14.320;2023-02-19T08:54:40;4.37;;;2.67;;
7166;SDS011;3625;51.762;14.320;2023-02-19T09:00:35;4.47;;;3.27;;
7166;SDS011;3625;51.762;14.320;2023-02-19T09:03:33;2.67;;;2.47;;
7166;SDS011;3625;51.762;14.320;2023-02-19T09:06:03;3.53;;;2.43;;
7166;SDS011;3625;51.762;14.320;2023-02-19T09:12:39;3.53;;;2.70;;
7166;SDS011;3625;51.762;14.320;2023-02-19T09:15:41;3.87;;;2.50;;
7166;SDS011;3625;51.762;14.320;2023-02-19T09:18:10;3.00;;;2.80;;
7166;SDS011;3625;51.762;14.320;2023-02-19T09:20:42;3.77;;;2.40;;
7166;SDS011;3625;51.762;14.320;2023-02-19T09:23:15;3.23;;;2.73;;
7166;SDS011;3625;51.762;14.320;2023-02-19T09:25:44;2.67;;;2.47;;
7166;SDS011;3625;51.762;14.320;2023-02-19T09:28:22;2.60;;;2.40;;
7166;SDS011;3625;51.762;14.320;2023-02-19T09:31:18;2.23;;;2.13;;
7166;SDS011;3625;51.762;14.320;2023-02-19T09:33:48;3.03;;;2.73;;
7166;SDS011;3625;51.762;14.320;2023-02-19T09:36:20;2.30;;;2.10;;
7166;SDS011;3625;51.762;14.320;2023-02-19T09:38:50;2.10;;;2.00;;
7166;SDS011;3625;51.762;14.320;2023-02-19T09:41:34;3.60;;;2.30;;
7166;SDS011;3625;51.762;14.320;2023-02-19T09:44:22;4.77;;;2.20;;
7166;SDS011;3625;51.762;14.320;2023-02-19T09:48:34;2.83;;;2.20;;
7166;SDS011;3625;51.762;14.320;2023-02-19T09:51:03;4.10;;;2.13;;
7166;SDS011;3625;51.762;14.320;2023-02-19T09:53:36;3.10;;;2.27;;
7166;SDS011;3625;51.762;14.320;2023-02-19T09:56:12;3.23;;;2.27;;
7166;SDS011;3625;51.762;14.320;2023-02-19T09:58:45;2.77;;;2.43;;
7166;SDS011;3625;51.762;14.320;2023-02-19T10:01:31;3.43;;;2.07;;
7166;SDS011;3625;51.762;14.320;2023-02-19T10:16:33;4.07;;;2.27;;
7166;SDS011;3625;51.762;14.320;2023-02-19T10:19:13;4.33;;;2.00;;
7166;SDS011;3625;51.762;14.320;2023-02-19T10:22:03;2.97;;;2.20;;
7166;SDS011;3625;51.762;14.320;2023-02-19T10:24:37;3.27;;;2.17;;
7166;SDS011;3625;51.762;14.320;2023-02-19T10:27:13;5.50;;;2.40;;
7166;SDS011;3625;51.762;14.320;2023-02-19T10:29:48;4.37;;;2.30;;
7166;SDS011;3625;51.762;14.320;2023-02-19T10:32:34;2.27;;;2.07;;
7166;SDS011;3625;51.762;14.320;2023-02-19T10:35:29;2.00;;;1.80;;
7166;SDS011;3625;51.762;14.320;2023-02-19T10:38:33;5.77;;;1.80;;
7166;SDS011;3625;51.762;14.320;2023-02-19T10:41:13;3.33;;;2.13;;
7166;SDS011;3625;51.762;14.320;2023-02-19T10:44:00;3.73;;;2.10;;
7166;SDS011;3625;51.762;14.320;2023-02-19T10:46:40;5.87;;;1.90;;
7166;SDS011;3625;51.762;14.320;2023-02-19T10:49:17;5.07;;;2.83;;
7166;SDS011;3625;51.762;14.320;2023-02-19T10:51:55;3.00;;;2.10;;
7166;SDS011;3625;51.762;14.320;2023-02-19T10:54:30;2.83;;;2.20;;
7166;SDS011;3625;51.762;14.320;2023-02-19T11:00:18;3.53;;;2.10;;
7166;SDS011;3625;51.762;14.320;2023-02-19T11:11:06;2.30;;;2.10;;
7166;SDS011;3625;51.762;14.320;2023-02-19T11:13:50;4.17;;;2.00;;
7166;SDS011;3625;51.762;14.320;2023-02-19T11:16:36;4.53;;;2.13;;
7166;SDS011;3625;51.762;14.320;2023-02-19T11:19:30;3.07;;;2.10;;
7166;SDS011;3625;51.762;14.320;2023-02-19T11:22:17;4.47;;;2.20;;
7166;SDS011;3625;51.762;14.320;2023-02-19T11:24:47;4.00;;;1.90;;
7166;SDS011;3625;51.762;14.320;2023-02-19T11:27:24;2.23;;;1.93;;
7166;SDS011;3625;51.762;14.320;2023-02-19T11:30:02;5.07;;;2.30;;
7166;SDS011;3625;51.762;14.320;2023-02-19T11:36:14;2.17;;;1.97;;
7166;SDS011;3625;51.762;14.320;2023-02-19T11:38:56;2.20;;;2.00;;
7166;SDS011;3625;51.762;14.320;2023-02-19T11:41:43;2.50;;;2.30;;
7166;SDS011;3625;51.762;14.320;2023-02-19T11:45:05;5.27;;;1.90;;
7166;SDS011;3625;51.762;14.320;2023-02-19T11:47:57;4.80;;;2.03;;
7166;SDS011;3625;51.762;14.320;2023-02-19T11:51:02;1.77;;;1.47;;
7166;SDS011;3625;51.762;14.320;2023-02-19T11:54:17;2.57;;;2.07;;
7166;SDS011;3625;51.762;14.320;2023-02-19T11:57:08;2.30;;;1.90;;
7166;SDS011;3625;51.762;14.320;2023-02-19T11:59:54;3.43;;;2.30;;
7166;SDS011;3625;51.762;14.320;2023-02-19T12:03:09;3.17;;;1.80;;
7166;SDS011;3625;51.762;14.320;2023-02-19T12:06:22;4.77;;;2.40;;
7166;SDS011;3625;51.762;14.320;2023-02-19T12:12:18;2.00;;;1.90;;
7166;SDS011;3625;51.762;14.320;2023-02-19T12:15:22;3.37;;;2.13;;
7166;SDS011;3625;51.762;14.320;2023-02-19T12:18:20;4.33;;;1.77;;
7166;SDS011;3625;51.762;14.320;2023-02-19T12:21:15;3.30;;;1.77;;
7166;SDS011;3625;51.762;14.320;2023-02-19T12:24:15;2.40;;;1.80;;
7166;SDS011;3625;51.762;14.320;2023-02-19T12:27:30;2.23;;;2.03;;
7166;SDS011;3625;51.762;14.320;2023-02-19T12:30:21;3.87;;;2.20;;
7166;SDS011;3625;51.762;14.320;2023-02-19T12:33:23;3.90;;;2.10;;
7166;SDS011;3625;51.762;14.320;2023-02-19T12:36:18;1.70;;;1.60;;
7166;SDS011;3625;51.762;14.320;2023-02-19T12:38:57;2.17;;;1.67;;
7166;SDS011;3625;51.762;14.320;2023-02-19T12:41:36;2.57;;;1.87;;
7166;SDS011;3625;51.762;14.320;2023-02-19T12:44:47;2.63;;;1.77;;
7166;SDS011;3625;51.762;14.320;2023-02-19T12:47:25;3.43;;;1.60;;
7166;SDS011;3625;51.762;14.320;2023-02-19T12:50:01;2.43;;;2.13;;
7166;SDS011;3625;51.762;14.320;2023-02-19T12:52:42;3.57;;;1.80;;
7166;SDS011;3625;51.762;14.320;2023-02-19T12:55:20;2.70;;;1.87;;
7166;SDS011;3625;51.762;14.320;2023-02-19T12:58:00;2.73;;;1.83;;
7166;SDS011;3625;51.762;14.320;2023-02-19T13:00:32;2.20;;;1.70;;
7166;SDS011;3625;51.762;14.320;2023-02-19T13:03:10;2.10;;;1.90;;
7166;SDS011;3625;51.762;14.320;2023-02-19T13:05:48;2.73;;;1.77;;
7166;SDS011;3625;51.762;14.320;2023-02-19T13:08:25;2.37;;;1.70;;
7166;SDS011;3625;51.762;14.320;2023-02-19T13:11:03;5.63;;;2.07;;
7166;SDS011;3625;51.762;14.320;2023-02-19T13:13:45;3.20;;;1.73;;
7166;SDS011;3625;51.762;14.320;2023-02-19T13:16:18;2.40;;;1.80;;
7166;SDS011;3625;51.762;14.320;2023-02-19T13:18:50;2.77;;;1.50;;
7166;SDS011;3625;51.762;14.320;2023-02-19T13:21:28;2.60;;;1.60;;
7166;SDS011;3625;51.762;14.320;2023-02-19T13:24:21;1.87;;;1.53;;
7166;SDS011;3625;51.762;14.320;2023-02-19T13:27:05;1.90;;;1.80;;
7166;SDS011;3625;51.762;14.320;2023-02-19T13:30:23;1.70;;;1.60;;
7166;SDS011;3625;51.762;14.320;2023-02-19T13:33:18;2.20;;;2.00;;
7166;SDS011;3625;51.762;14.320;2023-02-19T13:36:15;2.00;;;1.80;;
7166;SDS011;3625;51.762;14.320;2023-02-19T13:38:55;2.87;;;1.77;;
7166;SDS011;3625;51.762;14.320;2023-02-19T13:41:31;1.70;;;1.60;;
7166;SDS011;3625;51.762;14.320;2023-02-19T13:44:15;2.10;;;1.67;;
7166;SDS011;3625;51.762;14.320;2023-02-19T13:46:48;3.87;;;1.60;;
7166;SDS011;3625;51.762;14.320;2023-02-19T14:04:58;1.73;;;1.63;;
7166;SDS011;3625;51.762;14.320;2023-02-19T14:16:56;1.80;;;1.70;;
7166;SDS011;3625;51.762;14.320;2023-02-19T14:19:56;1.97;;;1.60;;
7166;SDS011;3625;51.762;14.320;2023-02-19T14:22:47;1.83;;;1.67;;
7166;SDS011;3625;51.762;14.320;2023-02-19T14:25:32;4.60;;;1.70;;
7166;SDS011;3625;51.762;14.320;2023-02-19T14:28:18;3.10;;;1.97;;
7166;SDS011;3625;51.762;14.320;2023-02-19T14:30:53;1.83;;;1.70;;
7166;SDS011;3625;51.762;14.320;2023-02-19T14:33:27;1.70;;;1.60;;
7166;SDS011;3625;51.762;14.320;2023-02-19T14:36:04;3.83;;;1.97;;
7166;SDS011;3625;51.762;14.320;2023-02-19T14:38:46;3.93;;;1.90;;
7166;SDS011;3625;51.762;14.320;2023-02-19T14:41:25;1.87;;;1.77;;
7166;SDS011;3625;51.762;14.320;2023-02-19T14:44:04;3.73;;;1.97;;
7166;SDS011;3625;51.762;14.320;2023-02-19T14:46:59;2.10;;;1.90;;
7166;SDS011;3625;51.762;14.320;2023-02-19T14:49:39;2.77;;;1.50;;
7166;SDS011;3625;51.762;14.320;2023-02-19T14:52:12;2.43;;;1.90;;
7166;SDS011;3625;51.762;14.320;2023-02-19T14:54:51;2.67;;;1.73;;
7166;SDS011;3625;51.762;14.320;2023-02-19T14:57:25;3.00;;;1.73;;
7166;SDS011;3625;51.762;14.320;2023-02-19T14:59:58;2.77;;;1.90;;
7166;SDS011;3625;51.762;14.320;2023-02-19T15:02:46;3.10;;;2.37;;
7166;SDS011;3625;51.762;14.320;2023-02-19T15:06:15;3.03;;;1.70;;
7166;SDS011;3625;51.762;14.320;2023-02-19T15:19:47;2.73;;;2.03;;
7166;SDS011;3625;51.762;14.320;2023-02-19T15:22:19;2.83;;;1.93;;
7166;SDS011;3625;51.762;14.320;2023-02-19T15:24:55;2.20;;;2.00;;
7166;SDS011;3625;51.762;14.320;2023-02-19T15:27:30;2.20;;;2.00;;
7166;SDS011;3625;51.762;14.320;2023-02-19T15:30:17;2.13;;;1.80;;
7166;SDS011;3625;51.762;14.320;2023-02-19T15:33:27;3.07;;;2.00;;
7166;SDS011;3625;51.762;14.320;2023-02-19T15:36:10;1.67;;;1.57;;
7166;SDS011;3625;51.762;14.320;2023-02-19T15:38:57;3.60;;;1.70;;
7166;SDS011;3625;51.762;14.320;2023-02-19T15:42:00;3.63;;;2.30;;
7166;SDS011;3625;51.762;14.320;2023-02-19T15:45:16;3.10;;;2.53;;
7166;SDS011;3625;51.762;14.320;2023-02-19T15:51:43;3.93;;;1.80;;
7166;SDS011;3625;51.762;14.320;2023-02-19T15:54:27;1.80;;;1.70;;
7166;SDS011;3625;51.762;14.320;2023-02-19T15:57:49;3.20;;;1.90;;
7166;SDS011;3625;51.762;14.320;2023-02-19T16:01:03;2.00;;;1.90;;
7166;SDS011;3625;51.762;14.320;2023-02-19T16:03:52;2.80;;;1.70;;
7166;SDS011;3625;51.762;14.320;2023-02-19T16:06:24;4.00;;;1.80;;
7166;SDS011;3625;51.762;14.320;2023-02-19T16:09:34;2.53;;;1.80;;
7166;SDS011;3625;51.762;14.320;2023-02-19T16:15:12;3.73;;;1.80;;
7166;SDS011;3625;51.762;14.320;2023-02-19T16:18:12;3.80;;;2.00;;
7166;SDS011;3625;51.762;14.320;2023-02-19T16:22:54;2.30;;;1.83;;
7166;SDS011;3625;51.762;14.320;2023-02-19T16:32:14;2.57;;;1.80;;
7166;SDS011;3625;51.762;14.320;2023-02-19T16:38:30;1.70;;;1.60;;
7166;SDS011;3625;51.762;14.320;2023-02-19T16:41:11;3.93;;;2.00;;
7166;SDS011;3625;51.762;14.320;2023-02-19T16:43:45;1.97;;;1.87;;
7166;SDS011;3625;51.762;14.320;2023-02-19T16:46:14;3.97;;;2.00;;
7166;SDS011;3625;51.762;14.320;2023-02-19T16:48:46;2.27;;;1.70;;
7166;SDS011;3625;51.762;14.320;2023-02-19T16:51:20;2.93;;;1.77;;
7166;SDS011;3625;51.762;14.320;2023-02-19T16:53:56;5.67;;;2.20;;
7166;SDS011;3625;51.762;14.320;2023-02-19T16:56:25;2.37;;;2.27;;
7166;SDS011;3625;51.762;14.320;2023-02-19T16:58:56;2.30;;;2.10;;
7166;SDS011;3625;51.762;14.320;2023-02-19T17:01:24;4.40;;;2.03;;
7166;SDS011;3625;51.762;14.320;2023-02-19T17:03:56;2.90;;;2.23;;
7166;SDS011;3625;51.762;14.320;2023-02-19T17:06:33;2.33;;;2.20;;
7166;SDS011;3625;51.762;14.320;2023-02-19T17:09:03;4.80;;;2.20;;
7166;SDS011;3625;51.762;14.320;2023-02-19T17:11:33;3.70;;;2.00;;
7166;SDS011;3625;51.762;14.320;2023-02-19T17:14:09;2.93;;;2.00;;
7166;SDS011;3625;51.762;14.320;2023-02-19T17:16:38;2.00;;;1.90;;
7166;SDS011;3625;51.762;14.320;2023-02-19T17:19:14;2.70;;;2.00;;
7166;SDS011;3625;51.762;14.320;2023-02-19T17:21:45;1.90;;;1.80;;
7166;SDS011;3625;51.762;14.320;2023-02-19T17:24:17;2.63;;;1.90;;
7166;SDS011;3625;51.762;14.320;2023-02-19T17:26:46;2.43;;;2.23;;
7166;SDS011;3625;51.762;14.320;2023-02-19T17:29:25;2.27;;;2.10;;
7166;SDS011;3625;51.762;14.320;2023-02-19T17:31:59;2.87;;;1.90;;
7166;SDS011;3625;51.762;14.320;2023-02-19T17:34:31;2.67;;;2.17;;
7166;SDS011;3625;51.762;14.320;2023-02-19T17:37:00;4.47;;;2.20;;
7166;SDS011;3625;51.762;14.320;2023-02-19T17:39:32;1.87;;;1.77;;
7166;SDS011;3625;51.762;14.320;2023-02-19T17:42:00;2.20;;;2.00;;
7166;SDS011;3625;51.762;14.320;2023-02-19T17:44:31;2.23;;;2.00;;
7166;SDS011;3625;51.762;14.320;2023-02-19T17:47:00;2.30;;;2.10;;
7166;SDS011;3625;51.762;14.320;2023-02-19T17:49:31;2.97;;;2.00;;
7166;SDS011;3625;51.762;14.320;2023-02-19T17:52:00;2.10;;;2.00;;
7166;SDS011;3625;51.762;14.320;2023-02-19T17:54:30;2.17;;;1.90;;
7166;SDS011;3625;51.762;14.320;2023-02-19T17:56:59;2.33;;;2.13;;
7166;SDS011;3625;51.762;14.320;2023-02-19T17:59:28;2.17;;;2.00;;
7166;SDS011;3625;51.762;14.320;2023-02-19T18:01:57;3.10;;;2.20;;
7166;SDS011;3625;51.762;14.320;2023-02-19T18:04:34;2.83;;;2.63;;
7166;SDS011;3625;51.762;14.320;2023-02-19T18:07:11;4.90;;;2.47;;
7166;SDS011;3625;51.762;14.320;2023-02-19T18:09:40;3.87;;;2.97;;
7166;SDS011;3625;51.762;14.320;2023-02-19T18:12:16;3.93;;;2.97;;
7166;SDS011;3625;51.762;14.320;2023-02-19T18:14:45;4.30;;;3.47;;
7166;SDS011;3625;51.762;14.320;2023-02-19T18:17:15;3.90;;;3.00;;
7166;SDS011;3625;51.762;14.320;2023-02-19T18:19:49;3.50;;;3.20;;
7166;SDS011;3625;51.762;14.320;2023-02-19T18:22:29;2.80;;;2.60;;
7166;SDS011;3625;51.762;14.320;2023-02-19T18:24:59;3.20;;;2.77;;
7166;SDS011;3625;51.762;14.320;2023-02-19T18:27:28;4.53;;;3.10;;
7166;SDS011;3625;51.762;14.320;2023-02-19T18:29:57;3.90;;;2.57;;
7166;SDS011;3625;51.762;14.320;2023-02-19T18:32:27;4.73;;;2.90;;
7166;SDS011;3625;51.762;14.320;2023-02-19T18:34:58;2.67;;;2.47;;
7166;SDS011;3625;51.762;14.320;2023-02-19T18:37:28;3.20;;;2.90;;
7166;SDS011;3625;51.762;14.320;2023-02-19T18:40:03;4.40;;;3.20;;
7166;SDS011;3625;51.762;14.320;2023-02-19T18:42:34;3.30;;;3.00;;
7166;SDS011;3625;51.762;14.320;2023-02-19T18:45:03;4.13;;;3.43;;
7166;SDS011;3625;51.762;14.320;2023-02-19T18:47:33;3.60;;;3.30;;
7166;SDS011;3625;51.762;14.320;2023-02-19T18:50:09;3.87;;;3.07;;
7166;SDS011;3625;51.762;14.320;2023-02-19T18:52:38;5.03;;;3.60;;
7166;SDS011;3625;51.762;14.320;2023-02-19T18:55:09;3.37;;;3.07;;
7166;SDS011;3625;51.762;14.320;2023-02-19T18:57:39;4.10;;;3.20;;
7166;SDS011;3625;51.762;14.320;2023-02-19T19:00:17;3.73;;;3.20;;
7166;SDS011;3625;51.762;14.320;2023-02-19T19:02:53;5.83;;;3.70;;
7166;SDS011;3625;51.762;14.320;2023-02-19T19:05:25;3.63;;;3.33;;
7166;SDS011;3625;51.762;14.320;2023-02-19T19:07:57;4.80;;;3.23;;
7166;SDS011;3625;51.762;14.320;2023-02-19T19:10:35;3.87;;;2.73;;
7166;SDS011;3625;51.762;14.320;2023-02-19T19:13:05;2.93;;;2.73;;
7166;SDS011;3625;51.762;14.320;2023-02-19T19:15:37;3.17;;;2.70;;
7166;SDS011;3625;51.762;14.320;2023-02-19T19:18:07;4.37;;;3.87;;
7166;SDS011;3625;51.762;14.320;2023-02-19T19:20:39;4.80;;;3.43;;
7166;SDS011;3625;51.762;14.320;2023-02-19T19:23:09;5.33;;;3.17;;
7166;SDS011;3625;51.762;14.320;2023-02-19T19:25:41;4.03;;;3.30;;
7166;SDS011;3625;51.762;14.320;2023-02-19T19:28:16;6.53;;;3.63;;
7166;SDS011;3625;51.762;14.320;2023-02-19T19:30:45;3.97;;;3.60;;
7166;SDS011;3625;51.762;14.320;2023-02-19T19:33:26;4.77;;;3.57;;
7166;SDS011;3625;51.762;14.320;2023-02-19T19:35:59;4.47;;;3.63;;
7166;SDS011;3625;51.762;14.320;2023-02-19T19:38:32;3.67;;;3.33;;
7166;SDS011;3625;51.762;14.320;2023-02-19T19:41:05;4.97;;;3.60;;
7166;SDS011;3625;51.762;14.320;2023-02-19T19:43:38;4.27;;;3.40;;
7166;SDS011;3625;51.762;14.320;2023-02-19T19:46:08;22.13;;;11.17;;
7166;SDS011;3625;51.762;14.320;2023-02-19T19:48:39;4.23;;;3.83;;
7166;SDS011;3625;51.762;14.320;2023-02-19T19:51:24;4.63;;;3.30;;
7166;SDS011;3625;51.762;14.320;2023-02-19T19:54:07;5.23;;;3.70;;
7166;SDS011;3625;51.762;14.320;2023-02-19T19:56:40;5.17;;;4.00;;
7166;SDS011;3625;51.762;14.320;2023-02-19T19:59:16;4.57;;;3.53;;
7166;SDS011;3625;51.762;14.320;2023-02-19T20:01:49;5.40;;;4.07;;
7166;SDS011;3625;51.762;14.320;2023-02-19T20:04:21;4.13;;;3.60;;
7166;SDS011;3625;51.762;14.320;2023-02-19T20:06:54;4.17;;;3.57;;
7166;SDS011;3625;51.762;14.320;2023-02-19T20:09:28;6.13;;;3.33;;
7166;SDS011;3625;51.762;14.320;2023-02-19T20:12:06;3.97;;;3.13;;
7166;SDS011;3625;51.762;14.320;2023-02-19T20:14:38;4.57;;;4.07;;
7166;SDS011;3625;51.762;14.320;2023-02-19T20:17:14;3.90;;;3.60;;
7166;SDS011;3625;51.762;14.320;2023-02-19T20:19:44;4.37;;;3.37;;
7166;SDS011;3625;51.762;14.320;2023-02-19T20:22:17;3.07;;;2.77;;
7166;SDS011;3625;51.762;14.320;2023-02-19T20:24:48;4.27;;;2.93;;
7166;SDS011;3625;51.762;14.320;2023-02-19T20:27:20;4.30;;;3.20;;
7166;SDS011;3625;51.762;14.320;2023-02-19T20:29:50;3.50;;;3.10;;
7166;SDS011;3625;51.762;14.320;2023-02-19T20:32:22;4.47;;;3.60;;
7166;SDS011;3625;51.762;14.320;2023-02-19T20:34:56;4.17;;;3.33;;
7166;SDS011;3625;51.762;14.320;2023-02-19T20:37:28;7.70;;;3.70;;
7166;SDS011;3625;51.762;14.320;2023-02-19T20:39:58;4.73;;;3.87;;
7166;SDS011;3625;51.762;14.320;2023-02-19T20:42:27;5.87;;;3.47;;
7166;SDS011;3625;51.762;14.320;2023-02-19T20:44:56;3.60;;;3.30;;
7166;SDS011;3625;51.762;14.320;2023-02-19T20:47:25;4.40;;;3.87;;
7166;SDS011;3625;51.762;14.320;2023-02-19T20:49:56;3.77;;;3.40;;
7166;SDS011;3625;51.762;14.320;2023-02-19T20:52:30;5.83;;;3.30;;
7166;SDS011;3625;51.762;14.320;2023-02-19T20:55:02;8.03;;;4.80;;
7166;SDS011;3625;51.762;14.320;2023-02-19T20:57:32;4.90;;;3.50;;
7166;SDS011;3625;51.762;14.320;2023-02-19T21:00:04;4.23;;;3.27;;
7166;SDS011;3625;51.762;14.320;2023-02-19T21:02:36;3.73;;;3.23;;
7166;SDS011;3625;51.762;14.320;2023-02-19T21:05:08;3.60;;;3.20;;
7166;SDS011;3625;51.762;14.320;2023-02-19T21:07:40;3.50;;;3.20;;
7166;SDS011;3625;51.762;14.320;2023-02-19T21:10:11;3.43;;;3.10;;
7166;SDS011;3625;51.762;14.320;2023-02-19T21:13:10;5.27;;;2.93;;
7166;SDS011;3625;51.762;14.320;2023-02-19T21:15:53;3.53;;;2.90;;
7166;SDS011;3625;51.762;14.320;2023-02-19T21:18:28;4.17;;;3.27;;
7166;SDS011;3625;51.762;14.320;2023-02-19T21:21:41;3.70;;;2.67;;
7166;SDS011;3625;51.762;14.320;2023-02-19T21:24:13;4.33;;;3.00;;
7166;SDS011;3625;51.762;14.320;2023-02-19T21:26:45;4.30;;;3.20;;
7166;SDS011;3625;51.762;14.320;2023-02-19T21:29:16;5.50;;;4.00;;
7166;SDS011;3625;51.762;14.320;2023-02-19T21:31:53;4.80;;;3.40;;
7166;SDS011;3625;51.762;14.320;2023-02-19T21:34:48;3.83;;;3.03;;
7166;SDS011;3625;51.762;14.320;2023-02-19T21:37:44;4.20;;;2.97;;
7166;SDS011;3625;51.762;14.320;2023-02-19T21:40:15;5.30;;;3.07;;
7166;SDS011;3625;51.762;14.320;2023-02-19T21:42:47;5.30;;;3.50;;
7166;SDS011;3625;51.762;14.320;2023-02-19T21:45:17;4.23;;;3.87;;
7166;SDS011;3625;51.762;14.320;2023-02-19T21:47:49;5.70;;;3.77;;
7166;SDS011;3625;51.762;14.320;2023-02-19T21:50:18;5.30;;;3.73;;
7166;SDS011;3625;51.762;14.320;2023-02-19T21:52:47;7.47;;;3.90;;
7166;SDS011;3625;51.762;14.320;2023-02-19T21:55:20;6.80;;;3.23;;
7166;SDS011;3625;51.762;14.320;2023-02-19T21:57:52;4.77;;;3.67;;
7166;SDS011;3625;51.762;14.320;2023-02-19T22:00:23;3.97;;;3.63;;
7166;SDS011;3625;51.762;14.320;2023-02-19T22:02:52;4.63;;;3.70;;
7166;SDS011;3625;51.762;14.320;2023-02-19T22:05:25;4.33;;;3.70;;
7166;SDS011;3625;51.762;14.320;2023-02-19T22:07:54;6.73;;;4.47;;
7166;SDS011;3625;51.762;14.320;2023-02-19T22:10:29;4.60;;;4.17;;
7166;SDS011;3625;51.762;14.320;2023-02-19T22:13:01;7.23;;;4.00;;
7166;SDS011;3625;51.762;14.320;2023-02-19T22:15:32;6.00;;;3.67;;
7166;SDS011;3625;51.762;14.320;2023-02-19T22:18:04;4.70;;;3.53;;
7166;SDS011;3625;51.762;14.320;2023-02-19T22:20:36;6.30;;;3.93;;
7166;SDS011;3625;51.762;14.320;2023-02-19T22:23:05;4.80;;;3.83;;
7166;SDS011;3625;51.762;14.320;2023-02-19T22:25:38;5.67;;;3.77;;
7166;SDS011;3625;51.762;14.320;2023-02-19T22:28:10;4.03;;;3.50;;
7166;SDS011;3625;51.762;14.320;2023-02-19T22:30:44;3.27;;;3.00;;
7166;SDS011;3625;51.762;14.320;2023-02-19T22:33:15;3.93;;;3.53;;
7166;SDS011;3625;51.762;14.320;2023-02-19T22:35:44;4.40;;;3.43;;
7166;SDS011;3625;51.762;14.320;2023-02-19T22:38:15;5.77;;;3.60;;
7166;SDS011;3625;51.762;14.320;2023-02-19T22:40:51;5.43;;;3.87;;
7166;SDS011;3625;51.762;14.320;2023-02-19T22:43:20;5.80;;;3.97;;
7166;SDS011;3625;51.762;14.320;2023-02-19T22:45:49;4.10;;;3.70;;
7166;SDS011;3625;51.762;14.320;2023-02-19T22:48:20;5.47;;;3.60;;
7166;SDS011;3625;51.762;14.320;2023-02-19T22:51:00;5.70;;;3.40;;
7166;SDS011;3625;51.762;14.320;2023-02-19T22:53:30;5.67;;;3.83;;
7166;SDS011;3625;51.762;14.320;2023-02-19T22:56:01;5.77;;;3.90;;
7166;SDS011;3625;51.762;14.320;2023-02-19T22:58:35;3.83;;;3.50;;
7166;SDS011;3625;51.762;14.320;2023-02-19T23:01:10;4.60;;;3.80;;
7166;SDS011;3625;51.762;14.320;2023-02-19T23:03:45;5.90;;;4.27;;
7166;SDS011;3625;51.762;14.320;2023-02-19T23:06:20;3.87;;;3.20;;
7166;SDS011;3625;51.762;14.320;2023-02-19T23:08:50;4.53;;;3.60;;
7166;SDS011;3625;51.762;14.320;2023-02-19T23:11:24;4.03;;;3.73;;
7166;SDS011;3625;51.762;14.320;2023-02-19T23:14:02;5.23;;;3.97;;
7166;SDS011;3625;51.762;14.320;2023-02-19T23:16:32;6.53;;;3.70;;
7166;SDS011;3625;51.762;14.320;2023-02-19T23:19:17;5.17;;;3.67;;
7166;SDS011;3625;51.762;14.320;2023-02-19T23:21:46;4.40;;;3.70;;
7166;SDS011;3625;51.762;14.320;2023-02-19T23:24:16;4.57;;;3.37;;
7166;SDS011;3625;51.762;14.320;2023-02-19T23:26:49;4.33;;;3.17;;